Home / US / Utah / Salt Lake Nexrad

Salt Lake Nexrad, UT Weather

Current Report for Wed Jul 18 2018

As of 4:53 PM MDT WED JUL 18 2018

94°F 34°cSalt Lake Nexrad weather conditions : Fair

Fair

Barometer: 30.09 inHg. falling

Humidity: 9%

Wind: N. 0mph

Wind Gust: 2mph

Wind Chill: 94°F

Dew Point: 28°F falling

Visibility: 10.00mi.

Sunrise: 6:12 AM

Sunset: 9:00 PM

Moon Phase: Waxing Crescent Moon

Daily and Hourly Summary

Loading Salt Lake Nexrad UT Summary and Hourly data for today, tonight and tomorrow...
Forecast for Salt Lake Nexrad, UT:
(Forecast based on TAF for )
1245 PM MDT WED JUL 18 2018
  
AFTERNOON EVENING OVERNIGHT MORNING AFTERNOON
Clear Clear Clear Partly Cloudy Partly Cloudy
Clear Clear Clear Partly
Cloudy
Partly
Cloudy
Original Encoded TAF:
Dated: 1245 PM MDT WED JUL 18 2018
2018/07/18 18:45
TAF KOGD 181743Z 1818/1918 28006KT P6SM SKC 
     FM190300 17007KT P6SM SKC 
     FM191600 30008KT P6SM SCT250

Temperatures Today (View More Charts)

Salt Lake Nexrad, UT updates by locals

Write your own report, forecast, or traffic update:

Please note by clicking on "Post" you acknowledge that you have read the Terms of Service and the report and/or forecast you are posting is in compliance with such terms. Be respectful. An inappropriate post will be removed by a moderator. If you are not finding the information you want, please be sure to note the navigation tabs just above the breadcrumbs, which are links to other data relating to this city.